sensor_id;sensor_type;location;lat;lon;timestamp;pressure;altitude;pressure_sealevel;temperature;humidity
25759;BME280;13604;52.496;13.456;2023-03-22T00:01:19;100790.69;;;8.47;100.00
25759;BME280;13604;52.496;13.456;2023-03-22T00:03:46;100818.91;;;8.57;100.00
25759;BME280;13604;52.496;13.456;2023-03-22T00:06:12;100809.00;;;8.50;100.00
25759;BME280;13604;52.496;13.456;2023-03-22T00:08:37;100820.75;;;8.43;100.00
25759;BME280;13604;52.496;13.456;2023-03-22T00:11:03;100809.94;;;8.36;100.00
25759;BME280;13604;52.496;13.456;2023-03-22T00:13:28;100818.34;;;8.32;100.00
25759;BME280;13604;52.496;13.456;2023-03-22T00:15:54;100809.88;;;8.19;100.00
25759;BME280;13604;52.496;13.456;2023-03-22T00:18:19;100804.97;;;8.09;100.00
25759;BME280;13604;52.496;13.456;2023-03-22T00:20:49;100809.06;;;8.20;100.00
25759;BME280;13604;52.496;13.456;2023-03-22T00:23:14;100804.13;;;8.25;100.00
25759;BME280;13604;52.496;13.456;2023-03-22T00:25:40;100779.94;;;8.09;100.00
25759;BME280;13604;52.496;13.456;2023-03-22T00:28:05;100800.75;;;8.26;100.00
25759;BME280;13604;52.496;13.456;2023-03-22T00:30:30;100801.78;;;8.29;100.00
25759;BME280;13604;52.496;13.456;2023-03-22T00:32:56;100757.31;;;8.07;100.00
25759;BME280;13604;52.496;13.456;2023-03-22T00:35:21;100791.34;;;8.28;100.00
25759;BME280;13604;52.496;13.456;2023-03-22T00:37:46;100780.53;;;8.20;100.00
25759;BME280;13604;52.496;13.456;2023-03-22T00:40:15;100797.56;;;8.32;100.00
25759;BME280;13604;52.496;13.456;2023-03-22T00:42:40;100788.56;;;8.25;100.00
25759;BME280;13604;52.496;13.456;2023-03-22T00:45:08;100782.50;;;8.24;100.00
25759;BME280;13604;52.496;13.456;2023-03-22T00:47:34;100788.06;;;8.32;100.00
25759;BME280;13604;52.496;13.456;2023-03-22T00:50:00;100782.66;;;8.27;100.00
25759;BME280;13604;52.496;13.456;2023-03-22T00:52:26;100770.78;;;8.16;100.00
25759;BME280;13604;52.496;13.456;2023-03-22T00:54:51;100788.06;;;8.32;100.00
25759;BME280;13604;52.496;13.456;2023-03-22T00:57:17;100775.59;;;8.25;100.00
25759;BME280;13604;52.496;13.456;2023-03-22T00:59:43;100789.34;;;8.24;100.00
25759;BME280;13604;52.496;13.456;2023-03-22T01:02:09;100786.94;;;8.27;100.00
25759;BME280;13604;52.496;13.456;2023-03-22T01:04:37;100769.47;;;8.08;100.00
25759;BME280;13604;52.496;13.456;2023-03-22T01:07:04;100791.13;;;8.08;100.00
25759;BME280;13604;52.496;13.456;2023-03-22T01:09:31;100778.72;;;8.03;100.00
25759;BME280;13604;52.496;13.456;2023-03-22T01:11:59;100784.75;;;8.18;100.00
25759;BME280;13604;52.496;13.456;2023-03-22T01:14:25;100765.34;;;8.11;100.00
25759;BME280;13604;52.496;13.456;2023-03-22T01:16:51;100778.75;;;8.19;100.00
25759;BME280;13604;52.496;13.456;2023-03-22T01:19:24;100769.75;;;8.13;100.00
25759;BME280;13604;52.496;13.456;2023-03-22T01:21:52;100775.63;;;8.10;100.00
25759;BME280;13604;52.496;13.456;2023-03-22T01:24:17;100770.38;;;8.08;100.00
25759;BME280;13604;52.496;13.456;2023-03-22T01:26:43;100757.88;;;8.01;100.00
25759;BME280;13604;52.496;13.456;2023-03-22T01:29:08;100747.31;;;7.98;100.00
25759;BME280;13604;52.496;13.456;2023-03-22T01:31:34;100761.78;;;8.09;100.00
25759;BME280;13604;52.496;13.456;2023-03-22T01:33:59;100759.59;;;8.17;100.00
25759;BME280;13604;52.496;13.456;2023-03-22T01:36:24;100753.25;;;8.12;100.00
25759;BME280;13604;52.496;13.456;2023-03-22T01:38:50;100727.81;;;8.05;100.00
25759;BME280;13604;52.496;13.456;2023-03-22T01:41:16;100744.50;;;8.10;100.00
25759;BME280;13604;52.496;13.456;2023-03-22T01:43:41;100727.00;;;8.06;100.00
25759;BME280;13604;52.496;13.456;2023-03-22T01:46:07;100732.25;;;8.07;100.00
25759;BME280;13604;52.496;13.456;2023-03-22T01:48:39;100715.16;;;7.95;100.00
25759;BME280;13604;52.496;13.456;2023-03-22T01:51:18;100713.09;;;7.89;100.00
25759;BME280;13604;52.496;13.456;2023-03-22T01:53:47;100721.13;;;7.93;100.00
25759;BME280;13604;52.496;13.456;2023-03-22T01:56:16;100733.00;;;8.05;100.00
25759;BME280;13604;52.496;13.456;2023-03-22T01:58:43;100736.72;;;8.10;100.00
25759;BME280;13604;52.496;13.456;2023-03-22T02:01:09;100735.38;;;8.17;100.00
25759;BME280;13604;52.496;13.456;2023-03-22T02:04:00;100737.22;;;8.03;100.00
25759;BME280;13604;52.496;13.456;2023-03-22T02:06:27;100731.03;;;8.01;100.00
25759;BME280;13604;52.496;13.456;2023-03-22T02:08:54;100731.38;;;8.07;100.00
25759;BME280;13604;52.496;13.456;2023-03-22T02:11:28;100725.75;;;7.99;100.00
25759;BME280;13604;52.496;13.456;2023-03-22T02:14:07;100724.59;;;7.94;100.00
25759;BME280;13604;52.496;13.456;2023-03-22T02:16:43;100724.13;;;7.85;100.00
25759;BME280;13604;52.496;13.456;2023-03-22T02:19:24;100733.66;;;7.86;100.00
25759;BME280;13604;52.496;13.456;2023-03-22T02:25:01;100720.56;;;7.68;100.00
25759;BME280;13604;52.496;13.456;2023-03-22T02:39:11;100704.41;;;7.57;100.00
25759;BME280;13604;52.496;13.456;2023-03-22T02:41:53;100733.38;;;7.65;100.00
25759;BME280;13604;52.496;13.456;2023-03-22T02:49:43;100711.03;;;7.67;100.00
25759;BME280;13604;52.496;13.456;2023-03-22T02:55:08;100716.31;;;7.53;100.00
25759;BME280;13604;52.496;13.456;2023-03-22T02:57:44;100686.41;;;7.29;100.00
25759;BME280;13604;52.496;13.456;2023-03-22T03:00:13;100693.53;;;7.33;100.00
25759;BME280;13604;52.496;13.456;2023-03-22T03:02:44;100707.81;;;7.41;100.00
25759;BME280;13604;52.496;13.456;2023-03-22T03:05:14;100699.09;;;7.39;100.00
25759;BME280;13604;52.496;13.456;2023-03-22T03:07:42;100696.78;;;7.29;100.00
25759;BME280;13604;52.496;13.456;2023-03-22T03:10:11;100689.25;;;7.18;100.00
25759;BME280;13604;52.496;13.456;2023-03-22T03:12:39;100698.66;;;7.16;100.00
25759;BME280;13604;52.496;13.456;2023-03-22T03:15:15;100695.78;;;7.12;100.00
25759;BME280;13604;52.496;13.456;2023-03-22T03:20:32;100700.88;;;7.10;100.00
25759;BME280;13604;52.496;13.456;2023-03-22T03:23:27;100708.50;;;7.07;100.00
25759;BME280;13604;52.496;13.456;2023-03-22T03:28:38;100712.47;;;7.02;100.00
25759;BME280;13604;52.496;13.456;2023-03-22T03:34:24;100718.75;;;7.06;100.00
25759;BME280;13604;52.496;13.456;2023-03-22T03:37:17;100720.16;;;7.00;100.00
25759;BME280;13604;52.496;13.456;2023-03-22T03:39:48;100714.53;;;6.93;100.00
25759;BME280;13604;52.496;13.456;2023-03-22T03:42:16;100721.66;;;6.97;100.00
25759;BME280;13604;52.496;13.456;2023-03-22T03:44:43;100732.47;;;6.90;100.00
25759;BME280;13604;52.496;13.456;2023-03-22T03:47:09;100721.16;;;6.88;100.00
25759;BME280;13604;52.496;13.456;2023-03-22T03:49:36;100703.72;;;6.85;100.00
25759;BME280;13604;52.496;13.456;2023-03-22T03:52:03;100707.81;;;6.81;100.00
25759;BME280;13604;52.496;13.456;2023-03-22T03:54:28;100715.78;;;6.85;100.00
25759;BME280;13604;52.496;13.456;2023-03-22T03:56:54;100709.63;;;6.82;100.00
25759;BME280;13604;52.496;13.456;2023-03-22T03:59:19;100708.72;;;6.82;100.00
25759;BME280;13604;52.496;13.456;2023-03-22T04:01:47;100715.69;;;6.83;100.00
25759;BME280;13604;52.496;13.456;2023-03-22T04:04:18;100701.22;;;6.87;100.00
25759;BME280;13604;52.496;13.456;2023-03-22T04:06:50;100682.63;;;6.79;100.00
25759;BME280;13604;52.496;13.456;2023-03-22T04:09:16;100682.13;;;6.85;100.00
25759;BME280;13604;52.496;13.456;2023-03-22T04:11:41;100689.91;;;6.85;100.00
25759;BME280;13604;52.496;13.456;2023-03-22T04:14:07;100704.47;;;6.97;100.00
25759;BME280;13604;52.496;13.456;2023-03-22T04:16:32;100689.34;;;6.90;100.00
25759;BME280;13604;52.496;13.456;2023-03-22T04:18:57;100711.88;;;7.06;100.00
25759;BME280;13604;52.496;13.456;2023-03-22T04:21:22;100676.69;;;6.95;100.00
25759;BME280;13604;52.496;13.456;2023-03-22T04:23:48;100708.91;;;7.15;100.00
25759;BME280;13604;52.496;13.456;2023-03-22T04:26:13;100720.69;;;7.25;100.00
25759;BME280;13604;52.496;13.456;2023-03-22T04:28:38;100720.19;;;7.30;100.00
25759;BME280;13604;52.496;13.456;2023-03-22T04:31:04;100703.03;;;7.17;100.00
25759;BME280;13604;52.496;13.456;2023-03-22T04:33:29;100709.63;;;7.27;100.00
25759;BME280;13604;52.496;13.456;2023-03-22T04:35:56;100709.81;;;7.15;100.00
25759;BME280;13604;52.496;13.456;2023-03-22T04:38:22;100719.63;;;7.21;100.00
25759;BME280;13604;52.496;13.456;2023-03-22T04:40:49;100701.78;;;7.11;100.00
25759;BME280;13604;52.496;13.456;2023-03-22T04:43:15;100707.94;;;7.13;100.00
25759;BME280;13604;52.496;13.456;2023-03-22T04:45:43;100713.56;;;7.06;100.00
25759;BME280;13604;52.496;13.456;2023-03-22T04:48:10;100708.41;;;7.06;100.00
25759;BME280;13604;52.496;13.456;2023-03-22T04:50:36;100688.19;;;6.85;100.00
25759;BME280;13604;52.496;13.456;2023-03-22T04:53:02;100706.03;;;6.95;100.00
25759;BME280;13604;52.496;13.456;2023-03-22T04:55:27;100705.53;;;7.01;100.00
25759;BME280;13604;52.496;13.456;2023-03-22T04:57:54;100664.34;;;6.76;100.00
25759;BME280;13604;52.496;13.456;2023-03-22T05:00:19;100674.97;;;6.80;100.00
25759;BME280;13604;52.496;13.456;2023-03-22T05:02:45;100690.19;;;6.89;100.00
25759;BME280;13604;52.496;13.456;2023-03-22T05:05:11;100680.97;;;6.79;100.00
25759;BME280;13604;52.496;13.456;2023-03-22T05:07:36;100691.44;;;6.96;100.00
25759;BME280;13604;52.496;13.456;2023-03-22T05:10:03;100668.53;;;6.89;100.00
25759;BME280;13604;52.496;13.456;2023-03-22T05:12:29;100673.22;;;6.94;100.00
25759;BME280;13604;52.496;13.456;2023-03-22T05:14:55;100661.25;;;6.81;100.00
25759;BME280;13604;52.496;13.456;2023-03-22T05:17:21;100677.22;;;7.04;100.00
25759;BME280;13604;52.496;13.456;2023-03-22T05:19:46;100671.13;;;7.04;100.00
25759;BME280;13604;52.496;13.456;2023-03-22T05:22:11;100664.19;;;7.03;100.00
25759;BME280;13604;52.496;13.456;2023-03-22T05:24:38;100648.19;;;6.95;100.00
25759;BME280;13604;52.496;13.456;2023-03-22T05:27:03;100658.91;;;7.01;100.00
25759;BME280;13604;52.496;13.456;2023-03-22T05:29:29;100669.00;;;6.96;100.00
25759;BME280;13604;52.496;13.456;2023-03-22T05:32:01;100680.00;;;7.07;100.00
25759;BME280;13604;52.496;13.456;2023-03-22T05:34:26;100680.63;;;7.03;100.00
25759;BME280;13604;52.496;13.456;2023-03-22T05:36:59;100676.78;;;6.96;100.00
25759;BME280;13604;52.496;13.456;2023-03-22T05:39:24;100678.81;;;7.02;100.00
25759;BME280;13604;52.496;13.456;2023-03-22T05:41:50;100672.19;;;6.92;100.00
25759;BME280;13604;52.496;13.456;2023-03-22T05:44:15;100677.03;;;7.01;100.00
25759;BME280;13604;52.496;13.456;2023-03-22T05:46:40;100673.03;;;7.06;100.00
25759;BME280;13604;52.496;13.456;2023-03-22T05:49:06;100680.50;;;7.16;100.00
25759;BME280;13604;52.496;13.456;2023-03-22T05:51:31;100677.84;;;7.15;100.00
25759;BME280;13604;52.496;13.456;2023-03-22T05:53:56;100673.47;;;7.14;100.00
25759;BME280;13604;52.496;13.456;2023-03-22T05:56:21;100662.75;;;7.08;100.00
25759;BME280;13604;52.496;13.456;2023-03-22T05:58:48;100661.41;;;7.14;100.00
25759;BME280;13604;52.496;13.456;2023-03-22T06:01:13;100670.16;;;7.16;100.00
25759;BME280;13604;52.496;13.456;2023-03-22T06:03:41;100667.75;;;7.19;100.00
25759;BME280;13604;52.496;13.456;2023-03-22T06:06:08;100670.44;;;7.21;100.00
25759;BME280;13604;52.496;13.456;2023-03-22T06:08:35;100668.81;;;7.23;100.00
25759;BME280;13604;52.496;13.456;2023-03-22T06:11:01;100667.94;;;7.23;100.00
25759;BME280;13604;52.496;13.456;2023-03-22T06:13:26;100654.88;;;7.21;100.00
25759;BME280;13604;52.496;13.456;2023-03-22T06:15:52;100630.84;;;7.09;100.00
25759;BME280;13604;52.496;13.456;2023-03-22T06:18:18;100669.53;;;7.35;100.00
25759;BME280;13604;52.496;13.456;2023-03-22T06:20:43;100659.34;;;7.39;100.00
25759;BME280;13604;52.496;13.456;2023-03-22T06:23:08;100642.78;;;7.36;100.00
25759;BME280;13604;52.496;13.456;2023-03-22T06:25:34;100653.59;;;7.44;100.00
25759;BME280;13604;52.496;13.456;2023-03-22T06:27:59;100662.38;;;7.63;100.00
25759;BME280;13604;52.496;13.456;2023-03-22T06:30:24;100650.97;;;7.59;100.00
25759;BME280;13604;52.496;13.456;2023-03-22T06:32:50;100661.47;;;7.77;100.00
25759;BME280;13604;52.496;13.456;2023-03-22T06:35:15;100651.66;;;7.71;100.00
25759;BME280;13604;52.496;13.456;2023-03-22T06:37:40;100664.22;;;7.80;100.00
25759;BME280;13604;52.496;13.456;2023-03-22T06:40:06;100655.09;;;7.87;100.00
25759;BME280;13604;52.496;13.456;2023-03-22T06:42:32;100651.53;;;7.85;100.00
25759;BME280;13604;52.496;13.456;2023-03-22T06:44:58;100666.84;;;7.97;100.00
25759;BME280;13604;52.496;13.456;2023-03-22T06:47:23;100651.53;;;7.85;100.00
25759;BME280;13604;52.496;13.456;2023-03-22T06:49:49;100676.56;;;8.01;100.00
25759;BME280;13604;52.496;13.456;2023-03-22T06:52:14;100662.53;;;7.97;100.00
25759;BME280;13604;52.496;13.456;2023-03-22T06:54:40;100672.19;;;8.00;100.00
25759;BME280;13604;52.496;13.456;2023-03-22T06:57:05;100680.00;;;8.16;100.00
25759;BME280;13604;52.496;13.456;2023-03-22T06:59:30;100686.94;;;8.17;100.00
25759;BME280;13604;52.496;13.456;2023-03-22T07:01:56;100678.63;;;8.06;100.00
25759;BME280;13604;52.496;13.456;2023-03-22T07:04:21;100684.44;;;8.19;100.00
25759;BME280;13604;52.496;13.456;2023-03-22T07:06:46;100683.81;;;8.39;100.00
25759;BME280;13604;52.496;13.456;2023-03-22T07:09:12;100660.63;;;8.42;100.00
25759;BME280;13604;52.496;13.456;2023-03-22T07:11:37;100667.41;;;8.55;100.00
25759;BME280;13604;52.496;13.456;2023-03-22T07:14:02;100679.25;;;8.84;100.00
25759;BME280;13604;52.496;13.456;2023-03-22T07:16:28;100677.34;;;8.80;100.00
25759;BME280;13604;52.496;13.456;2023-03-22T07:18:53;100677.44;;;9.00;100.00
25759;BME280;13604;52.496;13.456;2023-03-22T07:21:19;100645.22;;;8.78;100.00
25759;BME280;13604;52.496;13.456;2023-03-22T07:23:45;100678.94;;;8.95;100.00
25759;BME280;13604;52.496;13.456;2023-03-22T07:26:10;100671.81;;;9.09;100.00
25759;BME280;13604;52.496;13.456;2023-03-22T07:28:37;100676.16;;;9.26;100.00
25759;BME280;13604;52.496;13.456;2023-03-22T07:31:07;100680.63;;;8.94;100.00
25759;BME280;13604;52.496;13.456;2023-03-22T07:33:37;100667.28;;;9.23;100.00
25759;BME280;13604;52.496;13.456;2023-03-22T07:36:03;100654.25;;;9.21;100.00
25759;BME280;13604;52.496;13.456;2023-03-22T07:38:29;100663.59;;;9.35;100.00
25759;BME280;13604;52.496;13.456;2023-03-22T07:40:54;100671.75;;;9.07;100.00
25759;BME280;13604;52.496;13.456;2023-03-22T07:43:21;100671.13;;;9.29;100.00
25759;BME280;13604;52.496;13.456;2023-03-22T07:45:49;100659.97;;;9.32;100.00
25759;BME280;13604;52.496;13.456;2023-03-22T07:48:16;100662.94;;;9.57;100.00
25759;BME280;13604;52.496;13.456;2023-03-22T07:50:41;100646.41;;;9.75;99.47
25759;BME280;13604;52.496;13.456;2023-03-22T07:53:07;100649.16;;;9.78;99.94
25759;BME280;13604;52.496;13.456;2023-03-22T07:55:33;100653.00;;;9.86;98.49
25759;BME280;13604;52.496;13.456;2023-03-22T07:57:58;100646.88;;;10.23;97.08
25759;BME280;13604;52.496;13.456;2023-03-22T08:00:24;100654.38;;;10.55;95.00
25759;BME280;13604;52.496;13.456;2023-03-22T08:02:49;100629.28;;;10.18;95.13
25759;BME280;13604;52.496;13.456;2023-03-22T08:05:14;100647.16;;;10.68;93.19
25759;BME280;13604;52.496;13.456;2023-03-22T08:07:40;100643.66;;;10.68;92.62
25759;BME280;13604;52.496;13.456;2023-03-22T08:10:06;100645.97;;;10.81;92.14
25759;BME280;13604;52.496;13.456;2023-03-22T08:12:32;100619.66;;;11.17;89.58
25759;BME280;13604;52.496;13.456;2023-03-22T08:14:57;100639.84;;;11.44;89.39
25759;BME280;13604;52.496;13.456;2023-03-22T08:17:22;100624.03;;;11.62;86.80
25759;BME280;13604;52.496;13.456;2023-03-22T08:19:49;100625.94;;;11.44;87.13
25759;BME280;13604;52.496;13.456;2023-03-22T08:22:14;100630.94;;;11.39;86.56
25759;BME280;13604;52.496;13.456;2023-03-22T08:24:39;100618.22;;;11.47;88.51
25759;BME280;13604;52.496;13.456;2023-03-22T08:27:05;100641.09;;;11.98;85.40
25759;BME280;13604;52.496;13.456;2023-03-22T08:29:30;100632.75;;;11.63;85.49
25759;BME280;13604;52.496;13.456;2023-03-22T08:31:56;100626.75;;;11.42;85.51
25759;BME280;13604;52.496;13.456;2023-03-22T08:34:26;100608.09;;;11.77;86.15
25759;BME280;13604;52.496;13.456;2023-03-22T08:36:51;100625.38;;;12.44;81.54
25759;BME280;13604;52.496;13.456;2023-03-22T08:39:16;100606.50;;;12.53;82.59
25759;BME280;13604;52.496;13.456;2023-03-22T08:41:42;100602.31;;;12.57;80.29
25759;BME280;13604;52.496;13.456;2023-03-22T08:44:07;100586.41;;;12.50;79.64
25759;BME280;13604;52.496;13.456;2023-03-22T08:46:32;100619.31;;;12.21;81.95
25759;BME280;13604;52.496;13.456;2023-03-22T08:48:57;100580.09;;;11.95;81.72
25759;BME280;13604;52.496;13.456;2023-03-22T08:51:25;100609.81;;;12.47;80.15
25759;BME280;13604;52.496;13.456;2023-03-22T08:53:50;100616.53;;;12.17;82.10
25759;BME280;13604;52.496;13.456;2023-03-22T08:56:16;100607.09;;;12.44;81.14
25759;BME280;13604;52.496;13.456;2023-03-22T08:58:42;100614.06;;;12.95;77.72
25759;BME280;13604;52.496;13.456;2023-03-22T09:01:15;100605.13;;;12.63;80.04
25759;BME280;13604;52.496;13.456;2023-03-22T09:03:41;100595.66;;;12.92;77.87
25759;BME280;13604;52.496;13.456;2023-03-22T09:06:07;100593.44;;;13.32;74.66
25759;BME280;13604;52.496;13.456;2023-03-22T09:08:32;100584.25;;;13.16;75.50
25759;BME280;13604;52.496;13.456;2023-03-22T09:10:58;100584.75;;;13.60;75.46
25759;BME280;13604;52.496;13.456;2023-03-22T09:13:23;100588.59;;;14.33;72.99
25759;BME280;13604;52.496;13.456;2023-03-22T09:15:49;100578.44;;;14.78;69.71
25759;BME280;13604;52.496;13.456;2023-03-22T09:18:15;100564.44;;;15.12;69.08
25759;BME280;13604;52.496;13.456;2023-03-22T09:20:41;100577.78;;;15.61;66.01
25759;BME280;13604;52.496;13.456;2023-03-22T09:23:07;100549.00;;;15.65;65.37
25759;BME280;13604;52.496;13.456;2023-03-22T09:25:33;100567.28;;;16.48;64.63
25759;BME280;13604;52.496;13.456;2023-03-22T09:27:58;100573.00;;;16.74;60.27
25759;BME280;13604;52.496;13.456;2023-03-22T09:30:23;100567.59;;;17.79;59.15
25759;BME280;13604;52.496;13.456;2023-03-22T09:32:48;100554.63;;;20.27;51.81
25759;BME280;13604;52.496;13.456;2023-03-22T09:35:14;100548.47;;;21.39;47.37
25759;BME280;13604;52.496;13.456;2023-03-22T09:37:39;100566.09;;;21.46;46.60
25759;BME280;13604;52.496;13.456;2023-03-22T09:40:05;100578.22;;;19.77;49.10
25759;BME280;13604;52.496;13.456;2023-03-22T09:42:35;100542.81;;;19.50;49.98
25759;BME280;13604;52.496;13.456;2023-03-22T09:45:05;100552.84;;;18.80;52.64
25759;BME280;13604;52.496;13.456;2023-03-22T09:47:35;100568.25;;;17.63;55.89
25759;BME280;13604;52.496;13.456;2023-03-22T09:50:09;100569.94;;;18.28;54.62
25759;BME280;13604;52.496;13.456;2023-03-22T09:52:37;100564.72;;;18.31;55.91
25759;BME280;13604;52.496;13.456;2023-03-22T09:55:05;100562.53;;;18.79;52.29
25759;BME280;13604;52.496;13.456;2023-03-22T09:57:35;100550.44;;;19.00;51.69
25759;BME280;13604;52.496;13.456;2023-03-22T10:00:20;100564.06;;;19.71;49.59
25759;BME280;13604;52.496;13.456;2023-03-22T10:02:58;100551.38;;;19.12;50.88
25759;BME280;13604;52.496;13.456;2023-03-22T10:05:37;100550.91;;;19.78;50.12
25759;BME280;13604;52.496;13.456;2023-03-22T10:11:47;100552.84;;;23.11;42.17
25759;BME280;13604;52.496;13.456;2023-03-22T10:14:30;100547.53;;;23.92;40.79
25759;BME280;13604;52.496;13.456;2023-03-22T10:16:59;100544.56;;;24.15;39.70
25759;BME280;13604;52.496;13.456;2023-03-22T10:19:48;100544.03;;;21.42;43.54
25759;BME280;13604;52.496;13.456;2023-03-22T10:22:15;100543.91;;;19.86;48.00
25759;BME280;13604;52.496;13.456;2023-03-22T10:24:44;100515.81;;;20.29;46.89
25759;BME280;13604;52.496;13.456;2023-03-22T10:27:16;100526.28;;;19.81;47.04
25759;BME280;13604;52.496;13.456;2023-03-22T10:29:45;100525.53;;;20.44;46.33
25759;BME280;13604;52.496;13.456;2023-03-22T10:32:17;100522.91;;;20.48;46.43
25759;BME280;13604;52.496;13.456;2023-03-22T10:34:43;100517.91;;;19.04;48.56
25759;BME280;13604;52.496;13.456;2023-03-22T10:37:13;100512.59;;;19.01;49.21
25759;BME280;13604;52.496;13.456;2023-03-22T10:39:43;100516.22;;;19.15;48.34
25759;BME280;13604;52.496;13.456;2023-03-22T10:42:14;100520.28;;;17.20;52.53
25759;BME280;13604;52.496;13.456;2023-03-22T10:44:55;100499.97;;;17.11;53.58
25759;BME280;13604;52.496;13.456;2023-03-22T10:47:35;100496.25;;;17.61;52.45
25759;BME280;13604;52.496;13.456;2023-03-22T10:50:06;100486.28;;;17.35;53.25
25759;BME280;13604;52.496;13.456;2023-03-22T10:55:23;100494.78;;;17.86;53.02
25759;BME280;13604;52.496;13.456;2023-03-22T10:57:56;100481.06;;;16.80;55.38
25759;BME280;13604;52.496;13.456;2023-03-22T11:00:23;100482.38;;;16.52;57.31
25759;BME280;13604;52.496;13.456;2023-03-22T11:02:57;100475.13;;;16.92;54.56
25759;BME280;13604;52.496;13.456;2023-03-22T11:05:24;100481.16;;;16.33;54.29
25759;BME280;13604;52.496;13.456;2023-03-22T11:07:51;100481.94;;;16.27;55.48
25759;BME280;13604;52.496;13.456;2023-03-22T11:10:18;100477.66;;;16.32;56.57
25759;BME280;13604;52.496;13.456;2023-03-22T11:13:33;100453.16;;;16.87;54.91
25759;BME280;13604;52.496;13.456;2023-03-22T11:15:51;100471.59;;;17.54;53.52
25759;BME280;13604;52.496;13.456;2023-03-22T11:18:17;100457.31;;;17.37;51.48
25759;BME280;13604;52.496;13.456;2023-03-22T11:20:58;100473.81;;;17.22;52.17
25759;BME280;13604;52.496;13.456;2023-03-22T11:23:25;100458.06;;;17.97;49.51
25759;BME280;13604;52.496;13.456;2023-03-22T11:25:55;100472.75;;;18.64;48.36
25759;BME280;13604;52.496;13.456;2023-03-22T11:28:26;100451.59;;;18.59;47.16
25759;BME280;13604;52.496;13.456;2023-03-22T11:31:01;100465.81;;;17.83;49.88
25759;BME280;13604;52.496;13.456;2023-03-22T11:33:27;100467.13;;;16.84;52.48
25759;BME280;13604;52.496;13.456;2023-03-22T11:35:55;100470.28;;;16.63;53.78
25759;BME280;13604;52.496;13.456;2023-03-22T11:38:23;100459.56;;;16.51;54.06
25759;BME280;13604;52.496;13.456;2023-03-22T11:40:54;100467.97;;;16.30;55.16
25759;BME280;13604;52.496;13.456;2023-03-22T11:43:22;100462.59;;;16.75;54.24
25759;BME280;13604;52.496;13.456;2023-03-22T11:45:53;100472.94;;;17.23;53.16
25759;BME280;13604;52.496;13.456;2023-03-22T11:48:23;100455.81;;;17.54;52.17
25759;BME280;13604;52.496;13.456;2023-03-22T11:50:53;100431.91;;;18.17;49.75
25759;BME280;13604;52.496;13.456;2023-03-22T11:53:21;100457.97;;;18.87;46.59
25759;BME280;13604;52.496;13.456;2023-03-22T11:55:50;100448.44;;;19.05;45.79
25759;BME280;13604;52.496;13.456;2023-03-22T11:58:26;100455.56;;;19.21;45.88
25759;BME280;13604;52.496;13.456;2023-03-22T12:00:54;100436.44;;;21.10;42.64
25759;BME280;13604;52.496;13.456;2023-03-22T12:03:26;100432.72;;;21.56;41.39
25759;BME280;13604;52.496;13.456;2023-03-22T12:05:52;100425.59;;;19.11;44.89
25759;BME280;13604;52.496;13.456;2023-03-22T12:08:25;100432.94;;;20.85;42.44
25759;BME280;13604;52.496;13.456;2023-03-22T12:10:56;100427.41;;;24.21;37.38
25759;BME280;13604;52.496;13.456;2023-03-22T12:13:50;100440.91;;;26.71;31.16
25759;BME280;13604;52.496;13.456;2023-03-22T12:16:24;100426.41;;;26.81;31.15
25759;BME280;13604;52.496;13.456;2023-03-22T12:19:05;100417.94;;;25.51;33.17
25759;BME280;13604;52.496;13.456;2023-03-22T12:21:58;100408.88;;;22.78;37.50
25759;BME280;13604;52.496;13.456;2023-03-22T12:24:30;100416.59;;;21.98;38.26
25759;BME280;13604;52.496;13.456;2023-03-22T12:27:03;100416.06;;;21.26;39.15
25759;BME280;13604;52.496;13.456;2023-03-22T12:29:35;100395.25;;;25.73;33.16
25759;BME280;13604;52.496;13.456;2023-03-22T12:32:10;100418.88;;;25.47;31.80
25759;BME280;13604;52.496;13.456;2023-03-22T12:34:40;100409.84;;;25.94;31.43
25759;BME280;13604;52.496;13.456;2023-03-22T12:37:12;100396.22;;;26.43;31.65
25759;BME280;13604;52.496;13.456;2023-03-22T12:39:42;100390.63;;;26.53;31.21
25759;BME280;13604;52.496;13.456;2023-03-22T12:44:56;100384.59;;;24.35;33.83
25759;BME280;13604;52.496;13.456;2023-03-22T12:47:31;100378.84;;;25.89;32.05
25759;BME280;13604;52.496;13.456;2023-03-22T12:50:22;100382.00;;;25.27;32.87
25759;BME280;13604;52.496;13.456;2023-03-22T12:52:50;100361.47;;;24.39;34.13
25759;BME280;13604;52.496;13.456;2023-03-22T12:55:36;100347.09;;;24.51;33.68
25759;BME280;13604;52.496;13.456;2023-03-22T12:58:05;100370.81;;;24.12;34.52
25759;BME280;13604;52.496;13.456;2023-03-22T13:00:41;100359.13;;;24.20;34.36
25759;BME280;13604;52.496;13.456;2023-03-22T13:05:39;100369.31;;;21.22;40.50
25759;BME280;13604;52.496;13.456;2023-03-22T13:08:04;100366.84;;;20.36;40.05
25759;BME280;13604;52.496;13.456;2023-03-22T13:13:16;100357.66;;;21.60;38.82
25759;BME280;13604;52.496;13.456;2023-03-22T13:21:19;100365.78;;;22.53;36.60
25759;BME280;13604;52.496;13.456;2023-03-22T13:23:56;100352.59;;;21.09;39.65
25759;BME280;13604;52.496;13.456;2023-03-22T13:26:29;100369.50;;;19.85;41.37
25759;BME280;13604;52.496;13.456;2023-03-22T13:28:58;100370.38;;;18.13;44.99
25759;BME280;13604;52.496;13.456;2023-03-22T13:31:42;100327.03;;;16.96;46.34
25759;BME280;13604;52.496;13.456;2023-03-22T13:34:17;100374.84;;;17.35;46.38
25759;BME280;13604;52.496;13.456;2023-03-22T13:36:48;100360.25;;;17.66;45.90
25759;BME280;13604;52.496;13.456;2023-03-22T13:39:15;100342.19;;;20.46;40.41